Time;durP1;ratioP1;P1;durP2;ratioP2;P2;SDS_P1;SDS_P2;PMS_P1;PMS_P2;Temp;Humidity;BMP_temperature;BMP_pressure;BME280_temperature;BME280_humidity;BME280_pressure;Samples;Min_cycle;Max_cycle;Signal;HPM_P1;HPM_P2
2021/08/25 00:01:48;;;;;;;8.32;7.53;;;16.30;76.70;;;;;;4982903;28;20046;-63
2021/08/25 00:04:13;;;;;;;8.35;7.53;;;16.20;76.70;;;;;;4983579;28;20034;-63
2021/08/25 00:06:39;;;;;;;8.02;7.22;;;16.20;76.70;;;;;;4984384;28;20035;-63
2021/08/25 00:09:06;;;;;;;8.95;7.72;;;16.20;76.70;;;;;;4985843;28;20120;-63
2021/08/25 00:11:31;;;;;;;8.98;8.07;;;16.20;76.60;;;;;;4979317;28;20035;-64
2021/08/25 00:13:58;;;;;;;8.48;7.60;;;16.20;76.80;;;;;;4986201;28;20418;-63
2021/08/25 00:16:24;;;;;;;8.38;7.57;;;16.20;76.70;;;;;;4983488;28;20046;-63
2021/08/25 00:18:50;;;;;;;8.05;7.25;;;16.20;76.70;;;;;;4983134;28;20050;-63
2021/08/25 00:21:15;;;;;;;8.40;7.47;;;16.10;76.60;;;;;;4985142;28;20117;-64
2021/08/25 00:23:41;;;;;;;8.43;7.53;;;16.20;76.60;;;;;;4984974;28;20033;-64
2021/08/25 00:26:06;;;;;;;8.52;7.68;;;16.10;76.60;;;;;;4986511;28;20030;-63
2021/08/25 00:28:34;;;;;;;8.43;7.53;;;16.10;76.50;;;;;;4984707;28;20237;-64
2021/08/25 00:31:00;;;;;;;8.32;7.53;;;16.10;76.50;;;;;;4984111;28;20604;-63
2021/08/25 00:33:26;;;;;;;9.05;8.15;;;16.10;76.60;;;;;;4985600;28;20042;-63
2021/08/25 00:35:51;;;;;;;8.55;7.65;;;16.00;76.60;;;;;;4984310;28;20077;-63
2021/08/25 00:38:17;;;;;;;8.98;8.07;;;16.00;76.80;;;;;;4985547;28;20034;-63
2021/08/25 00:40:43;;;;;;;9.38;8.27;;;16.00;76.90;;;;;;4983334;28;20042;-64
2021/08/25 00:43:11;;;;;;;9.52;8.40;;;16.00;77.10;;;;;;4985148;28;20041;-63
2021/08/25 00:45:41;;;;;;;9.63;8.63;;;16.00;77.40;;;;;;4984407;28;20042;-62
2021/08/25 00:48:07;;;;;;;9.50;8.52;;;16.00;77.40;;;;;;4984445;28;20100;-63
2021/08/25 00:50:33;;;;;;;8.90;8.02;;;15.90;77.40;;;;;;4981841;28;20026;-63
2021/08/25 00:52:59;;;;;;;9.35;8.40;;;15.90;77.50;;;;;;4983064;28;20034;-63
2021/08/25 00:55:25;;;;;;;8.93;8.00;;;15.90;77.70;;;;;;4985761;28;20088;-63
2021/08/25 00:57:51;;;;;;;9.25;8.38;;;15.90;77.70;;;;;;5000611;28;20490;-63
2021/08/25 01:00:17;;;;;;;9.30;8.32;;;15.90;77.90;;;;;;5000450;28;20394;-63
2021/08/25 01:02:46;;;;;;;9.45;8.43;;;15.90;78.70;;;;;;4980310;28;20137;-63
2021/08/25 01:05:13;;;;;;;9.05;8.15;;;15.90;78.10;;;;;;4987226;28;20054;-63
2021/08/25 01:07:39;;;;;;;8.90;8.05;;;15.80;77.90;;;;;;4989213;28;20529;-63
2021/08/25 01:10:26;;;;;;;9.75;8.75;;;15.80;78.00;;;;;;5000626;28;20401;-63
2021/08/25 01:12:54;;;;;;;9.43;7.53;;;15.80;78.60;;;;;;4986286;28;20038;-63
2021/08/25 01:15:20;;;;;;;8.85;7.95;;;15.80;78.00;;;;;;4988513;28;20054;-63
2021/08/25 01:17:48;;;;;;;8.95;7.78;;;15.80;78.10;;;;;;4988896;28;20509;-63
2021/08/25 01:20:14;;;;;;;9.15;8.13;;;15.80;78.20;;;;;;4985497;28;20534;-63
2021/08/25 01:22:41;;;;;;;9.15;8.25;;;15.80;78.20;;;;;;4987397;28;20034;-63
2021/08/25 01:25:11;;;;;;;8.40;7.55;;;15.80;78.40;;;;;;4987369;28;20034;-63
2021/08/25 01:27:58;;;;;;;9.35;7.97;;;15.80;78.40;;;;;;4986941;28;20054;-63
2021/08/25 01:30:26;;;;;;;8.57;7.75;;;15.80;78.80;;;;;;5000652;28;20038;-63
2021/08/25 01:32:52;;;;;;;9.00;8.13;;;15.80;78.30;;;;;;4986293;28;20054;-63
2021/08/25 01:35:18;;;;;;;9.02;8.13;;;15.80;78.20;;;;;;4986471;28;20109;-63
2021/08/25 01:37:45;;;;;;;10.38;8.85;;;15.70;78.10;;;;;;4986334;28;20494;-63
2021/08/25 01:40:11;;;;;;;9.25;8.35;;;15.70;78.00;;;;;;4986979;28;20083;-63
2021/08/25 01:42:37;;;;;;;9.30;7.68;;;15.70;77.90;;;;;;4986717;28;20034;-63
2021/08/25 01:45:04;;;;;;;8.80;7.90;;;15.70;78.00;;;;;;4987671;28;20031;-63
2021/08/25 01:47:29;;;;;;;8.75;7.85;;;15.70;78.00;;;;;;4984901;28;20046;-63
2021/08/25 01:49:55;;;;;;;9.70;8.70;;;15.70;78.00;;;;;;4987224;28;20522;-63
2021/08/25 01:52:22;;;;;;;9.82;8.55;;;15.70;78.00;;;;;;4987259;28;20110;-63
2021/08/25 01:54:50;;;;;;;10.88;8.73;;;15.60;78.00;;;;;;5000953;28;20046;-62
2021/08/25 01:57:16;;;;;;;9.90;8.90;;;15.60;78.00;;;;;;4987789;28;20035;-63
2021/08/25 01:59:41;;;;;;;10.52;8.63;;;15.60;78.00;;;;;;4987499;28;20096;-63
2021/08/25 02:02:07;;;;;;;9.60;8.60;;;15.60;78.00;;;;;;4987118;28;20125;-63
2021/08/25 02:04:34;;;;;;;11.27;8.68;;;15.60;78.10;;;;;;4986424;28;20037;-63
2021/08/25 02:07:00;;;;;;;9.73;8.73;;;15.50;78.10;;;;;;4987315;28;20042;-63
2021/08/25 02:09:26;;;;;;;9.60;8.60;;;15.50;78.90;;;;;;4989033;28;20473;-63
2021/08/25 02:11:52;;;;;;;10.52;8.80;;;15.50;78.20;;;;;;4981884;28;20045;-63
2021/08/25 02:14:17;;;;;;;10.40;9.07;;;15.50;78.10;;;;;;4987654;28;20035;-63
2021/08/25 02:16:43;;;;;;;10.60;8.68;;;15.50;78.20;;;;;;4985396;28;20092;-63
2021/08/25 02:19:09;;;;;;;11.00;9.27;;;15.40;78.20;;;;;;4987678;28;20109;-64
2021/08/25 02:21:34;;;;;;;9.55;8.55;;;15.40;78.20;;;;;;4983430;28;20062;-64
2021/08/25 02:24:01;;;;;;;10.25;9.20;;;15.50;78.20;;;;;;5002872;28;20093;-63
2021/08/25 02:26:26;;;;;;;10.80;8.95;;;15.50;78.20;;;;;;4986089;28;20081;-63
2021/08/25 02:28:53;;;;;;;11.65;9.48;;;15.40;78.10;;;;;;4987656;28;20495;-63
2021/08/25 02:31:21;;;;;;;10.98;9.25;;;15.40;78.10;;;;;;4987193;28;20041;-64
2021/08/25 02:33:47;;;;;;;10.93;9.43;;;15.40;78.20;;;;;;4985603;28;20042;-64
2021/08/25 02:36:14;;;;;;;12.77;10.32;;;15.30;78.20;;;;;;4987330;28;20581;-63
2021/08/25 02:38:40;;;;;;;12.55;10.25;;;15.30;78.40;;;;;;4984205;28;20041;-64
2021/08/25 02:41:09;;;;;;;11.93;10.32;;;15.30;78.40;;;;;;4984970;28;20077;-64
2021/08/25 02:43:35;;;;;;;11.07;9.68;;;15.30;78.60;;;;;;4985810;28;20065;-63
2021/08/25 02:46:02;;;;;;;10.65;9.52;;;15.20;78.20;;;;;;4985633;28;20043;-63
2021/08/25 02:48:27;;;;;;;12.35;10.38;;;15.20;78.30;;;;;;4984259;28;20078;-63
2021/08/25 02:50:53;;;;;;;12.23;10.88;;;15.10;78.30;;;;;;4983817;28;20062;-63
2021/08/25 02:53:19;;;;;;;12.68;9.68;;;15.10;78.40;;;;;;4985187;28;20145;-63
2021/08/25 02:55:45;;;;;;;11.07;9.82;;;15.00;78.50;;;;;;4987835;28;20049;-63
2021/08/25 02:58:11;;;;;;;14.15;10.55;;;15.00;78.60;;;;;;4987048;28;20034;-63
2021/08/25 03:00:36;;;;;;;11.45;10.23;;;14.90;78.60;;;;;;4983744;28;20053;-63
2021/08/25 03:03:02;;;;;;;11.63;9.98;;;14.90;78.70;;;;;;4983013;28;20034;-63
2021/08/25 03:05:28;;;;;;;11.77;9.75;;;14.90;78.80;;;;;;4986529;28;20094;-62
2021/08/25 03:07:53;;;;;;;11.88;10.57;;;14.90;78.90;;;;;;4985730;28;20065;-64
2021/08/25 03:10:19;;;;;;;11.52;10.30;;;14.80;78.90;;;;;;4993492;28;20026;-64
2021/08/25 03:12:45;;;;;;;11.23;9.95;;;14.80;78.90;;;;;;4982219;28;20490;-64
2021/08/25 03:15:11;;;;;;;11.32;10.07;;;14.80;78.80;;;;;;4987940;28;20026;-63
2021/08/25 03:17:37;;;;;;;13.30;10.80;;;14.80;79.30;;;;;;4985924;28;20042;-63
2021/08/25 03:20:08;;;;;;;14.57;10.55;;;14.80;78.90;;;;;;5002349;28;20038;-63
2021/08/25 03:22:34;;;;;;;11.38;9.95;;;14.70;79.10;;;;;;4995013;28;20418;-64
2021/08/25 03:25:00;;;;;;;12.63;10.13;;;14.70;79.10;;;;;;4986862;28;20026;-63
2021/08/25 03:27:26;;;;;;;12.77;11.00;;;14.70;79.10;;;;;;4986435;28;20030;-63
2021/08/25 03:29:51;;;;;;;12.15;10.05;;;14.70;79.30;;;;;;4985556;28;20027;-63
2021/08/25 03:32:17;;;;;;;12.98;10.43;;;14.60;79.30;;;;;;4997652;28;20038;-64
2021/08/25 03:34:43;;;;;;;12.68;10.07;;;14.60;79.40;;;;;;4986097;28;20043;-63
2021/08/25 03:37:08;;;;;;;11.07;9.90;;;14.60;79.50;;;;;;4984391;28;20137;-63
2021/08/25 03:39:34;;;;;;;11.60;10.40;;;14.50;80.50;;;;;;4986556;28;20132;-63
2021/08/25 03:42:00;;;;;;;12.75;10.20;;;14.50;79.80;;;;;;4984445;28;20848;-63
2021/08/25 03:44:25;;;;;;;12.25;10.68;;;14.50;80.00;;;;;;4985087;28;20031;-63
2021/08/25 03:46:51;;;;;;;10.95;9.60;;;14.50;80.00;;;;;;4984395;28;20533;-63
2021/08/25 03:49:17;;;;;;;10.85;9.75;;;14.50;80.00;;;;;;4986967;28;20031;-63
2021/08/25 03:51:43;;;;;;;11.18;9.57;;;14.50;80.00;;;;;;4998207;28;20034;-63
2021/08/25 03:54:09;;;;;;;15.48;9.57;;;14.50;80.00;;;;;;4984909;28;20147;-63
2021/08/25 03:56:35;;;;;;;11.10;9.68;;;14.50;80.00;;;;;;4986213;28;20043;-63
2021/08/25 03:59:00;;;;;;;13.00;10.98;;;14.40;80.00;;;;;;4985049;28;20030;-63
2021/08/25 04:01:26;;;;;;;12.57;10.23;;;14.40;80.10;;;;;;4984902;28;20134;-63
2021/08/25 04:03:52;;;;;;;11.77;10.10;;;14.40;80.10;;;;;;4983904;28;20061;-63
2021/08/25 04:06:18;;;;;;;12.10;10.38;;;14.40;80.10;;;;;;4984266;28;20536;-63
2021/08/25 04:08:43;;;;;;;14.43;11.18;;;14.40;80.10;;;;;;4984977;28;20538;-63
2021/08/25 04:11:09;;;;;;;12.07;10.73;;;14.40;80.10;;;;;;4997135;28;20030;-63
2021/08/25 04:13:35;;;;;;;12.80;11.07;;;14.40;80.20;;;;;;4982733;28;20561;-63
2021/08/25 04:16:00;;;;;;;12.55;11.10;;;14.40;80.20;;;;;;4984437;28;20176;-63
2021/08/25 04:18:26;;;;;;;13.45;11.18;;;14.40;80.20;;;;;;4985121;28;20490;-63
2021/08/25 04:20:52;;;;;;;11.57;10.35;;;14.40;80.30;;;;;;4984157;28;20074;-63
2021/08/25 04:23:19;;;;;;;11.45;10.07;;;14.30;80.20;;;;;;4983347;28;20093;-63
2021/08/25 04:25:44;;;;;;;13.20;10.82;;;14.40;80.30;;;;;;4985437;28;20096;-63
2021/08/25 04:28:11;;;;;;;11.23;9.85;;;14.40;80.30;;;;;;4985340;28;20558;-63
2021/08/25 04:30:37;;;;;;;13.90;10.30;;;14.30;80.30;;;;;;4981032;28;20034;-63
2021/08/25 04:33:03;;;;;;;11.82;10.07;;;14.40;80.40;;;;;;4981988;28;20430;-63
2021/08/25 04:35:29;;;;;;;12.77;10.07;;;14.40;80.40;;;;;;4985719;28;20113;-63
2021/08/25 04:37:54;;;;;;;12.50;10.73;;;14.40;80.30;;;;;;4989042;28;21021;-64
2021/08/25 04:40:20;;;;;;;14.25;11.18;;;14.40;80.20;;;;;;4988381;28;20029;-63
2021/08/25 04:42:45;;;;;;;11.57;10.40;;;14.40;80.10;;;;;;4987542;28;20042;-63
2021/08/25 04:45:11;;;;;;;12.93;10.00;;;14.40;80.00;;;;;;4987959;28;20034;-63
2021/08/25 04:47:37;;;;;;;12.68;11.07;;;14.40;80.00;;;;;;4987729;28;20129;-64
2021/08/25 04:50:03;;;;;;;11.43;10.23;;;14.40;80.10;;;;;;4988814;28;20031;-63
2021/08/25 04:52:29;;;;;;;13.00;10.85;;;14.40;80.30;;;;;;4987054;28;20037;-63
2021/08/25 04:54:54;;;;;;;12.85;10.45;;;14.40;80.30;;;;;;4989144;28;20022;-65
2021/08/25 04:57:20;;;;;;;15.70;11.30;;;14.40;80.30;;;;;;4989909;28;20153;-65
2021/08/25 04:59:46;;;;;;;13.50;11.15;;;14.40;80.40;;;;;;4988605;28;20106;-65
2021/08/25 05:02:11;;;;;;;12.65;11.25;;;14.40;80.40;;;;;;4986558;28;20034;-65
2021/08/25 05:04:37;;;;;;;15.52;11.30;;;14.40;80.50;;;;;;4989491;28;20034;-62
2021/08/25 05:07:03;;;;;;;13.93;11.07;;;14.40;80.60;;;;;;4985402;28;20116;-64
2021/08/25 05:09:28;;;;;;;12.25;10.80;;;14.40;80.50;;;;;;4988848;28;20290;-63
2021/08/25 05:11:54;;;;;;;12.75;11.43;;;14.40;80.40;;;;;;4985354;28;20049;-62
2021/08/25 05:14:21;;;;;;;12.90;11.15;;;14.50;80.50;;;;;;4988386;28;20037;-64
2021/08/25 05:16:47;;;;;;;14.27;11.20;;;14.50;80.50;;;;;;4985493;28;20112;-62
2021/08/25 05:19:12;;;;;;;11.38;10.18;;;14.50;80.50;;;;;;4988647;28;20058;-63
2021/08/25 05:21:38;;;;;;;14.00;11.50;;;14.50;80.50;;;;;;4986637;28;20095;-63
2021/08/25 05:24:04;;;;;;;12.27;10.98;;;14.50;80.60;;;;;;4988569;28;20520;-64
2021/08/25 05:26:29;;;;;;;12.18;10.80;;;14.50;80.80;;;;;;4988853;28;20026;-63
2021/08/25 05:28:58;;;;;;;13.52;11.25;;;14.50;80.70;;;;;;4988112;28;20034;-63
2021/08/25 05:31:25;;;;;;;12.27;11.00;;;14.60;80.60;;;;;;4987726;28;20030;-63
2021/08/25 05:33:51;;;;;;;13.30;11.93;;;14.60;80.60;;;;;;4987453;28;20050;-63
2021/08/25 05:36:16;;;;;;;12.95;10.82;;;14.60;80.50;;;;;;5003631;28;20047;-63
2021/08/25 05:38:42;;;;;;;11.70;10.50;;;14.60;80.50;;;;;;4987117;28;20053;-63
2021/08/25 05:41:08;;;;;;;12.10;10.82;;;14.60;80.50;;;;;;4988105;28;20691;-63
2021/08/25 05:43:33;;;;;;;12.57;11.10;;;14.60;80.50;;;;;;4989572;28;20823;-63
2021/08/25 05:45:59;;;;;;;13.90;11.80;;;14.60;80.50;;;;;;4987714;28;20022;-64
2021/08/25 05:48:25;;;;;;;12.90;10.88;;;14.60;80.40;;;;;;4983134;28;20173;-63
2021/08/25 05:50:51;;;;;;;13.13;11.07;;;14.60;80.40;;;;;;4986613;28;20031;-63
2021/08/25 05:53:17;;;;;;;13.48;11.13;;;14.60;80.50;;;;;;4982953;28;20034;-64
2021/08/25 05:55:42;;;;;;;12.80;11.25;;;14.60;80.50;;;;;;4988900;28;20026;-63
2021/08/25 05:58:08;;;;;;;11.77;10.25;;;14.60;80.60;;;;;;4988850;28;20034;-64
2021/08/25 06:00:34;;;;;;;12.18;10.48;;;14.60;80.60;;;;;;4987316;28;20042;-63
2021/08/25 06:02:59;;;;;;;12.75;10.82;;;14.60;80.60;;;;;;4987842;28;20034;-63
2021/08/25 06:05:25;;;;;;;11.48;10.20;;;14.60;80.70;;;;;;4987296;28;20402;-63
2021/08/25 06:07:53;;;;;;;12.07;10.82;;;14.60;80.80;;;;;;4989198;28;20034;-64
2021/08/25 06:10:19;;;;;;;11.40;10.25;;;14.60;80.70;;;;;;4983588;28;20618;-63
2021/08/25 06:12:44;;;;;;;10.52;9.43;;;14.60;80.60;;;;;;4984316;28;20117;-63
2021/08/25 06:15:10;;;;;;;11.75;9.38;;;14.60;80.60;;;;;;4986779;28;20026;-63
2021/08/25 06:17:36;;;;;;;10.93;9.82;;;14.70;80.70;;;;;;4986940;28;20038;-63
2021/08/25 06:20:03;;;;;;;14.15;10.35;;;14.70;80.70;;;;;;4986372;28;20030;-63
2021/08/25 06:22:29;;;;;;;10.88;9.63;;;14.70;80.60;;;;;;4981729;28;20562;-63
2021/08/25 06:24:55;;;;;;;13.75;9.82;;;14.80;80.50;;;;;;4986142;28;20039;-63
2021/08/25 06:27:21;;;;;;;13.32;10.13;;;14.80;80.60;;;;;;4985710;28;20497;-63
2021/08/25 06:29:47;;;;;;;11.45;9.25;;;14.80;80.60;;;;;;4987185;28;20044;-63
2021/08/25 06:32:13;;;;;;;10.32;8.82;;;14.80;80.60;;;;;;4983196;28;20037;-63
2021/08/25 06:34:39;;;;;;;9.63;8.63;;;14.80;80.50;;;;;;4986806;28;20034;-63
2021/08/25 06:37:04;;;;;;;10.35;9.25;;;14.90;80.60;;;;;;4985621;28;20049;-63
2021/08/25 06:39:30;;;;;;;11.25;10.00;;;14.90;80.50;;;;;;4980867;28;20093;-63
2021/08/25 06:41:55;;;;;;;11.73;9.35;;;14.90;80.60;;;;;;4946425;28;20049;-64
2021/08/25 06:44:22;;;;;;;11.45;9.02;;;14.90;80.50;;;;;;4961713;28;20039;-63
2021/08/25 06:46:47;;;;;;;9.93;8.93;;;14.90;80.40;;;;;;4964335;28;20113;-63
2021/08/25 06:49:13;;;;;;;10.25;9.15;;;14.90;80.50;;;;;;4963574;28;20479;-64
2021/08/25 06:51:39;;;;;;;10.48;9.05;;;14.90;80.50;;;;;;4973316;28;20530;-64
2021/08/25 06:54:04;;;;;;;9.07;8.18;;;14.90;80.50;;;;;;4968967;28;20038;-64
2021/08/25 06:56:30;;;;;;;9.38;8.43;;;15.00;80.50;;;;;;4974206;28;20096;-65
2021/08/25 06:58:55;;;;;;;12.25;8.70;;;15.00;80.70;;;;;;4989624;28;20057;-63
2021/08/25 07:01:21;;;;;;;9.82;8.43;;;15.00;80.80;;;;;;4975341;28;20045;-63
2021/08/25 07:03:47;;;;;;;9.23;7.85;;;15.10;80.70;;;;;;4961357;28;20074;-63
2021/08/25 07:06:13;;;;;;;9.10;7.18;;;15.20;80.70;;;;;;4972222;28;20042;-64
2021/08/25 07:08:38;;;;;;;9.23;7.70;;;15.20;80.50;;;;;;4976571;28;20032;-63
2021/08/25 07:11:04;;;;;;;7.65;6.88;;;15.30;80.30;;;;;;4975107;28;20042;-64
2021/08/25 07:13:30;;;;;;;8.40;6.80;;;15.30;79.90;;;;;;4979390;28;20089;-64
2021/08/25 07:15:55;;;;;;;7.72;6.82;;;15.40;79.80;;;;;;4977462;28;20026;-63
2021/08/25 07:18:21;;;;;;;7.97;6.97;;;15.40;79.80;;;;;;4982674;28;20399;-63
2021/08/25 07:20:47;;;;;;;7.50;6.70;;;15.50;79.70;;;;;;4970428;28;20587;-63
2021/08/25 07:23:13;;;;;;;7.40;6.28;;;15.50;79.40;;;;;;4980428;28;20521;-62
2021/08/25 07:25:39;;;;;;;8.68;6.60;;;15.60;79.30;;;;;;4981624;28;20053;-63
2021/08/25 07:28:05;;;;;;;7.65;6.40;;;15.60;79.00;;;;;;4982770;28;20480;-63
2021/08/25 07:30:31;;;;;;;7.80;6.50;;;15.70;78.90;;;;;;4972509;28;20570;-63
2021/08/25 07:32:56;;;;;;;7.13;6.43;;;15.70;78.80;;;;;;4979964;28;20030;-64
2021/08/25 07:35:23;;;;;;;7.45;6.53;;;15.80;78.90;;;;;;4978089;28;20130;-64
2021/08/25 07:37:49;;;;;;;7.50;6.70;;;15.90;78.70;;;;;;4979953;28;20446;-63
2021/08/25 07:40:15;;;;;;;7.90;6.35;;;15.90;78.60;;;;;;4996292;28;20397;-64
2021/08/25 07:42:40;;;;;;;7.03;6.32;;;16.00;78.40;;;;;;4979446;28;20030;-64
2021/08/25 07:45:06;;;;;;;6.80;5.85;;;16.00;78.30;;;;;;4987685;28;20031;-64
2021/08/25 07:47:32;;;;;;;8.73;6.47;;;16.10;78.30;;;;;;4986859;28;20486;-64
2021/08/25 07:49:57;;;;;;;6.30;5.65;;;16.20;78.00;;;;;;4975531;28;20035;-65
2021/08/25 07:52:23;;;;;;;6.22;5.63;;;16.30;77.80;;;;;;4972225;28;20775;-64
2021/08/25 07:54:49;;;;;;;6.95;5.72;;;16.30;77.50;;;;;;4974761;28;20042;-63
2021/08/25 07:57:15;;;;;;;7.60;5.60;;;16.40;77.30;;;;;;4976084;28;20779;-64
2021/08/25 07:59:40;;;;;;;8.70;6.03;;;16.50;77.30;;;;;;4981955;28;20162;-64
2021/08/25 08:02:06;;;;;;;6.15;5.55;;;16.50;77.30;;;;;;4991886;28;20173;-64
2021/08/25 08:04:32;;;;;;;6.10;4.82;;;16.60;77.00;;;;;;4968389;28;20505;-63
2021/08/25 08:06:58;;;;;;;6.00;5.50;;;16.70;77.00;;;;;;4968323;28;20027;-63
2021/08/25 08:09:24;;;;;;;5.63;5.05;;;16.80;76.60;;;;;;4974921;28;20042;-64
2021/08/25 08:11:49;;;;;;;8.20;5.68;;;16.90;76.50;;;;;;4974324;28;20045;-64
2021/08/25 08:14:15;;;;;;;5.65;4.95;;;17.00;76.00;;;;;;4979263;28;20085;-64
2021/08/25 08:16:44;;;;;;;5.30;4.78;;;17.10;75.60;;;;;;4980595;28;20044;-63
2021/08/25 08:19:21;;;;;;;5.22;4.70;;;17.10;75.30;;;;;;4979546;28;20249;-64
2021/08/25 08:21:48;;;;;;;4.70;4.20;;;17.30;75.30;;;;;;4973153;28;20049;-64
2021/08/25 08:24:14;;;;;;;5.13;4.63;;;17.30;75.30;;;;;;4978123;28;20030;-64
2021/08/25 08:26:40;;;;;;;7.78;4.60;;;17.50;74.50;;;;;;4975602;28;20030;-63
2021/08/25 08:29:06;;;;;;;5.18;4.45;;;17.50;74.00;;;;;;4978856;28;20044;-64
2021/08/25 08:31:32;;;;;;;7.22;4.13;;;17.60;73.70;;;;;;4977220;28;20058;-64
2021/08/25 08:33:58;;;;;;;5.50;4.25;;;17.70;73.50;;;;;;4980774;28;20067;-64
2021/08/25 08:36:24;;;;;;;4.45;4.05;;;17.80;73.20;;;;;;4976818;28;20687;-63
2021/08/25 08:38:50;;;;;;;4.68;4.13;;;17.90;73.10;;;;;;4977512;28;20046;-64
2021/08/25 08:41:15;;;;;;;4.53;3.88;;;17.90;72.30;;;;;;4994741;28;20084;-64
2021/08/25 08:43:47;;;;;;;4.22;3.75;;;18.00;72.10;;;;;;4980365;28;20034;-64
2021/08/25 08:46:14;;;;;;;3.83;3.42;;;18.10;71.40;;;;;;4978011;28;20069;-64
2021/08/25 08:48:41;;;;;;;5.03;3.90;;;18.20;71.30;;;;;;4977278;28;20178;-64
2021/08/25 08:51:08;;;;;;;5.43;3.88;;;18.30;71.00;;;;;;4972947;28;20031;-63
2021/08/25 08:53:34;;;;;;;5.18;3.53;;;18.30;70.70;;;;;;4977326;28;20038;-64
2021/08/25 08:55:59;;;;;;;4.63;4.22;;;18.40;70.40;;;;;;4972322;28;20497;-64
2021/08/25 08:58:25;;;;;;;4.35;3.58;;;18.50;70.20;;;;;;4967583;28;20346;-64
2021/08/25 09:00:51;;;;;;;4.25;3.85;;;18.50;69.80;;;;;;4967544;28;20405;-64
2021/08/25 09:03:19;;;;;;;3.70;3.40;;;18.60;69.70;;;;;;4985502;28;20065;-64
2021/08/25 09:05:45;;;;;;;3.67;3.35;;;18.60;69.50;;;;;;4975959;28;20030;-64
2021/08/25 09:08:11;;;;;;;4.35;3.95;;;18.70;69.00;;;;;;4973069;28;20026;-64
2021/08/25 09:10:38;;;;;;;4.25;3.28;;;18.80;68.70;;;;;;4973800;28;20178;-64
2021/08/25 09:13:07;;;;;;;4.10;3.47;;;18.80;68.60;;;;;;4979110;28;20026;-64
2021/08/25 09:15:39;;;;;;;5.07;3.40;;;18.80;68.00;;;;;;4975877;28;20036;-64
2021/08/25 09:18:09;;;;;;;5.05;3.30;;;18.90;67.60;;;;;;4978256;28;20034;-63
2021/08/25 09:20:46;;;;;;;3.55;3.25;;;19.00;67.80;;;;;;4981569;28;20037;-63
2021/08/25 09:23:18;;;;;;;3.65;3.35;;;19.00;66.60;;;;;;4976854;28;20406;-63
2021/08/25 09:25:56;;;;;;;4.18;3.33;;;19.10;66.90;;;;;;4985973;28;20030;-64
2021/08/25 09:28:28;;;;;;;4.07;3.38;;;19.20;66.90;;;;;;4986530;28;20031;-64
2021/08/25 09:31:02;;;;;;;5.88;3.30;;;19.20;66.00;;;;;;4986114;28;20632;-64
2021/08/25 09:33:39;;;;;;;3.45;3.15;;;19.30;65.90;;;;;;4984999;28;20042;-64
2021/08/25 09:36:11;;;;;;;4.13;3.15;;;19.30;65.60;;;;;;4986707;28;20061;-64
2021/08/25 09:38:38;;;;;;;4.03;3.10;;;19.40;65.00;;;;;;4984401;28;20033;-64
2021/08/25 09:41:11;;;;;;;4.90;2.97;;;19.50;65.40;;;;;;4986110;28;20038;-64
2021/08/25 09:43:45;;;;;;;3.72;3.03;;;19.60;64.70;;;;;;4999205;28;20059;-64
2021/08/25 09:46:25;;;;;;;3.28;2.70;;;19.60;64.40;;;;;;4987513;28;20034;-64
2021/08/25 09:48:56;;;;;;;4.22;3.13;;;19.70;63.40;;;;;;4985941;28;20046;-64
2021/08/25 09:51:35;;;;;;;3.55;3.10;;;19.80;63.70;;;;;;4985612;28;20092;-64
2021/08/25 09:54:10;;;;;;;3.05;2.67;;;19.80;63.70;;;;;;4987116;28;20034;-64
2021/08/25 09:56:38;;;;;;;3.60;2.90;;;19.90;62.90;;;;;;4982720;28;20035;-64
2021/08/25 09:59:08;;;;;;;3.55;2.75;;;19.90;63.20;;;;;;4981169;28;20038;-64
2021/08/25 10:01:35;;;;;;;4.22;2.70;;;20.00;63.60;;;;;;4981516;28;20077;-64
2021/08/25 10:04:08;;;;;;;3.35;2.75;;;20.00;62.90;;;;;;4985537;28;20027;-64
2021/08/25 10:06:37;;;;;;;2.85;2.65;;;20.10;61.90;;;;;;4970807;28;20062;-63
2021/08/25 10:09:05;;;;;;;3.50;2.80;;;20.20;61.70;;;;;;4975246;28;20050;-64
2021/08/25 10:11:33;;;;;;;4.15;2.97;;;20.30;61.70;;;;;;4984407;28;20041;-64
2021/08/25 10:14:05;;;;;;;3.55;3.05;;;20.30;61.10;;;;;;4972604;28;20043;-64
2021/08/25 10:16:38;;;;;;;3.75;2.70;;;20.40;60.10;;;;;;4992961;28;20035;-63
2021/08/25 10:19:29;;;;;;;2.67;2.42;;;20.40;59.60;;;;;;4991873;28;20034;-64
2021/08/25 10:22:00;;;;;;;3.38;2.88;;;20.50;58.60;;;;;;4983469;28;20066;-64
2021/08/25 10:24:26;;;;;;;3.53;2.75;;;20.50;60.30;;;;;;4980960;28;20058;-64
2021/08/25 10:26:57;;;;;;;3.05;2.72;;;20.50;60.30;;;;;;4968177;28;20516;-64
2021/08/25 10:29:27;;;;;;;4.60;3.08;;;20.60;59.40;;;;;;4982465;28;20031;-64
2021/08/25 10:31:52;;;;;;;3.67;2.60;;;20.60;59.60;;;;;;4980638;28;20042;-64
2021/08/25 10:34:40;;;;;;;4.22;2.72;;;20.60;59.40;;;;;;4983613;28;20042;-64
2021/08/25 10:37:12;;;;;;;8.98;2.55;;;20.70;58.30;;;;;;4981376;28;20490;-64
2021/08/25 10:39:39;;;;;;;3.65;2.70;;;20.70;58.20;;;;;;4984994;28;20045;-64
2021/08/25 10:42:06;;;;;;;3.30;2.58;;;20.70;58.00;;;;;;4996043;28;20030;-64
2021/08/25 10:44:40;;;;;;;3.65;2.40;;;20.70;57.50;;;;;;4999543;28;20026;-64
2021/08/25 10:47:08;;;;;;;3.47;2.77;;;20.70;57.60;;;;;;4979048;28;20041;-64
2021/08/25 10:49:35;;;;;;;3.17;2.47;;;20.70;57.50;;;;;;4979297;28;20414;-64
2021/08/25 10:52:13;;;;;;;4.53;2.75;;;20.80;58.30;;;;;;4977042;28;20069;-62
2021/08/25 10:54:40;;;;;;;3.58;2.55;;;20.80;57.00;;;;;;4977031;28;20545;-64
2021/08/25 10:57:10;;;;;;;2.88;2.28;;;20.90;58.00;;;;;;4982282;28;20084;-64
2021/08/25 10:59:37;;;;;;;2.83;2.40;;;20.90;57.40;;;;;;4981534;28;20343;-64
2021/08/25 11:02:03;;;;;;;2.97;2.35;;;20.90;57.90;;;;;;4983103;28;20042;-64
2021/08/25 11:04:29;;;;;;;2.92;2.45;;;21.00;58.10;;;;;;4980923;28;20541;-64
2021/08/25 11:06:59;;;;;;;3.80;2.88;;;21.10;57.70;;;;;;4976738;28;20038;-64
2021/08/25 11:09:30;;;;;;;3.72;2.55;;;21.10;57.10;;;;;;4975787;28;20595;-64
2021/08/25 11:12:05;;;;;;;2.53;2.33;;;21.10;56.00;;;;;;4991096;28;20046;-64
2021/08/25 11:14:30;;;;;;;3.08;2.63;;;21.20;56.30;;;;;;4998875;28;20034;-64
2021/08/25 11:17:09;;;;;;;5.30;2.75;;;21.20;56.90;;;;;;4984127;28;20034;-64
2021/08/25 11:19:39;;;;;;;3.08;2.55;;;21.20;55.70;;;;;;4984734;28;20050;-64
2021/08/25 11:22:06;;;;;;;3.45;2.65;;;21.20;56.70;;;;;;4964518;28;20053;-64
2021/08/25 11:24:34;;;;;;;3.17;2.85;;;21.30;57.00;;;;;;4962330;28;20137;-64
2021/08/25 11:27:00;;;;;;;4.43;3.03;;;21.30;57.20;;;;;;4959503;28;20034;-64
2021/08/25 11:29:26;;;;;;;4.68;2.70;;;21.30;56.90;;;;;;4970584;28;20045;-63
2021/08/25 11:31:52;;;;;;;4.93;3.00;;;21.40;56.60;;;;;;4960890;28;20061;-64
2021/08/25 11:34:19;;;;;;;4.38;3.00;;;21.40;56.50;;;;;;4970302;28;20116;-64
2021/08/25 11:37:05;;;;;;;3.22;2.40;;;21.50;55.90;;;;;;4964483;28;20042;-64
2021/08/25 11:39:32;;;;;;;4.40;2.95;;;21.50;55.60;;;;;;4972777;28;20402;-64
2021/08/25 11:41:58;;;;;;;3.75;2.72;;;21.50;56.00;;;;;;4976061;28;20035;-64
2021/08/25 11:44:41;;;;;;;4.78;2.78;;;21.60;55.80;;;;;;4966587;28;20125;-63
2021/08/25 11:47:12;;;;;;;2.58;2.38;;;21.60;55.50;;;;;;4967170;28;20046;-64
2021/08/25 11:49:39;;;;;;;4.70;2.92;;;21.70;55.90;;;;;;4989354;28;20600;-64
2021/08/25 11:52:05;;;;;;;5.32;2.97;;;21.70;55.90;;;;;;4981949;28;20038;-63
2021/08/25 11:54:31;;;;;;;2.65;2.45;;;21.70;56.00;;;;;;4981623;28;20034;-64
2021/08/25 11:56:57;;;;;;;3.50;3.20;;;21.80;55.60;;;;;;4987036;28;20026;-64
2021/08/25 11:59:22;;;;;;;4.63;3.03;;;21.80;55.60;;;;;;4976230;28;20041;-65
2021/08/25 12:01:48;;;;;;;3.10;2.80;;;21.80;55.40;;;;;;4977669;28;20093;-64
2021/08/25 12:04:29;;;;;;;3.92;2.92;;;21.90;55.50;;;;;;4981416;28;20505;-64
2021/08/25 12:06:55;;;;;;;3.30;2.85;;;21.90;54.70;;;;;;4980402;28;20335;-64
2021/08/25 12:09:37;;;;;;;4.13;3.05;;;21.90;55.00;;;;;;4979432;28;20031;-64
2021/08/25 12:12:03;;;;;;;3.70;3.15;;;22.00;54.20;;;;;;4971740;28;20045;-64
2021/08/25 12:14:48;;;;;;;5.35;2.92;;;22.00;55.20;;;;;;4992086;28;20045;-64
2021/08/25 12:17:13;;;;;;;3.00;2.70;;;22.00;54.10;;;;;;4986327;28;20030;-64
2021/08/25 12:19:39;;;;;;;4.45;3.10;;;22.00;54.50;;;;;;5000161;28;20065;-64
2021/08/25 12:22:25;;;;;;;3.50;3.13;;;22.00;54.60;;;;;;4985063;28;20073;-62
2021/08/25 12:24:52;;;;;;;4.82;3.50;;;22.10;53.10;;;;;;4981683;28;20125;-64
2021/08/25 12:27:17;;;;;;;5.25;3.22;;;22.00;54.00;;;;;;4986667;28;20030;-64
2021/08/25 12:29:44;;;;;;;4.88;3.60;;;22.00;54.40;;;;;;4986495;28;20041;-65
2021/08/25 12:32:10;;;;;;;3.88;3.47;;;22.00;54.40;;;;;;4985180;28;20038;-65
2021/08/25 12:34:58;;;;;;;4.50;3.10;;;22.00;53.90;;;;;;4982316;28;20038;-64
2021/08/25 12:37:48;;;;;;;5.88;3.72;;;22.00;53.60;;;;;;4984900;28;20038;-64
2021/08/25 12:40:14;;;;;;;4.53;3.00;;;22.00;53.90;;;;;;4984631;28;20290;-64
2021/08/25 12:42:42;;;;;;;4.20;3.17;;;22.00;54.40;;;;;;4984462;28;20034;-64